CheckWX is a tool to help pilots better visualize weather data.  It is not intended as a substitute for an official pre-flight weather briefing.

00:59:16 UTC

CYZR METAR
Sarnia Chris Hadfield Airport
Sarnia, Canada
Current

34 mins ago

CYZR 210025Z AUTO 36006KT 9SM BKN006 OVC013 05/04 A2974 RMK SLP077
Observed
Apr-21 @ 00:25 UTC
Wind
  • 360° at 6 KTS
Visibility
9 SM
Flight Rules
IFR
Cloud Levels
  • Broken at 600' AGL
  • Overcast at 1,300' AGL
Temperature
C / 41°F
Dewpoint
C / 39°F
Humidity
93%
Altimeter
29.74" Hg
Pressure
1007.12 hPa
Previous

59 mins ago

CYZR 210000Z AUTO 05006KT 9SM OVC013 05/05 A2973 RMK SLP074
Observed
Apr-21 @ 00:00 UTC
Wind
  • 050° at 6 KTS
Visibility
9 SM
Flight Rules
MVFR
Cloud Levels
  • Overcast at 1,300' AGL
Temperature
C / 41°F
Dewpoint
C / 41°F
Humidity
100%
Altimeter
29.73" Hg
Pressure
1006.82 hPa
Previous

2 hours ago

CYZR 202300Z AUTO 02013KT 9SM FEW005 OVC013 05/04 A2971 RMK SLP068
Observed
Apr-20 @ 23:00 UTC
Wind
  • 020° at 13 KTS
Visibility
9 SM
Flight Rules
MVFR
Cloud Levels
  • Few at 500' AGL
  • Overcast at 1,300' AGL
Temperature
C / 41°F
Dewpoint
C / 39°F
Humidity
93%
Altimeter
29.71" Hg
Pressure
1006.12 hPa